Time;durP1;ratioP1;P1;durP2;ratioP2;P2;SDS_P1;SDS_P2;PMS_P1;PMS_P2;Temp;Humidity;BMP_temperature;BMP_pressure;BME280_temperature;BME280_humidity;BME280_pressure;Samples;Min_cycle;Max_cycle;Signal;HPM_P1;HPM_P2
2021/04/29 00:01:32;;;;;;;12.03;9.30;;;11.20;99.90;;;;;;5096086;28;20196;-53
2021/04/29 00:03:59;;;;;;;14.30;9.53;;;11.20;99.90;;;;;;5095559;28;20567;-51
2021/04/29 00:06:26;;;;;;;12.50;9.23;;;11.10;99.90;;;;;;5095664;28;20650;-58
2021/04/29 00:08:53;;;;;;;13.70;10.23;;;11.10;99.90;;;;;;5095956;28;20200;-59
2021/04/29 00:11:20;;;;;;;11.90;9.37;;;11.00;99.90;;;;;;5096022;28;20200;-58
2021/04/29 00:13:47;;;;;;;12.47;9.30;;;11.00;99.90;;;;;;5096050;28;20207;-59
2021/04/29 00:16:14;;;;;;;12.80;10.07;;;10.90;99.90;;;;;;5094203;28;20238;-59
2021/04/29 00:18:41;;;;;;;12.77;9.53;;;10.90;99.90;;;;;;5094055;28;20287;-58
2021/04/29 00:21:08;;;;;;;11.73;9.30;;;10.90;99.90;;;;;;5094546;28;20299;-59
2021/04/29 00:23:35;;;;;;;13.50;9.93;;;10.90;99.90;;;;;;5094165;28;20675;-58
2021/04/29 00:26:03;;;;;;;13.03;9.40;;;10.90;99.90;;;;;;5094408;28;20203;-58
2021/04/29 00:28:29;;;;;;;13.33;9.93;;;10.90;99.90;;;;;;5094391;28;20200;-59
2021/04/29 00:30:56;;;;;;;12.77;10.00;;;10.90;99.90;;;;;;5094051;28;20204;-58
2021/04/29 00:33:23;;;;;;;14.10;9.57;;;10.90;99.90;;;;;;5112977;28;20199;-59
2021/04/29 00:35:50;;;;;;;13.00;9.77;;;11.00;99.90;;;;;;5114559;28;20624;-59
2021/04/29 00:38:17;;;;;;;12.37;9.70;;;11.10;99.90;;;;;;5114641;28;20206;-59
2021/04/29 00:40:44;;;;;;;16.70;10.27;;;11.10;99.90;;;;;;5114619;28;20221;-58
2021/04/29 00:43:12;;;;;;;11.53;9.10;;;11.10;99.90;;;;;;5114314;28;20647;-59
2021/04/29 00:45:40;;;;;;;12.53;9.93;;;11.10;99.90;;;;;;5114698;28;20257;-59
2021/04/29 00:48:07;;;;;;;12.27;9.57;;;11.10;99.90;;;;;;5114306;28;20199;-60
2021/04/29 00:50:34;;;;;;;12.27;10.03;;;11.10;99.90;;;;;;5114595;28;20286;-58
2021/04/29 00:53:01;;;;;;;11.77;9.47;;;11.10;99.90;;;;;;5114445;28;20200;-59
2021/04/29 00:55:28;;;;;;;11.43;9.83;;;11.10;99.90;;;;;;5114289;28;20203;-60
2021/04/29 00:57:54;;;;;;;12.37;9.97;;;11.10;99.90;;;;;;5114032;28;20723;-60
2021/04/29 01:00:23;;;;;;;12.23;10.53;;;11.10;99.90;;;;;;5114114;28;20294;-59
2021/04/29 01:02:53;;;;;;;13.80;10.07;;;11.10;99.90;;;;;;5113752;28;20210;-59
2021/04/29 01:05:23;;;;;;;12.73;10.10;;;11.10;99.90;;;;;;5113873;28;20199;-58
2021/04/29 01:07:54;;;;;;;11.10;9.27;;;11.20;99.90;;;;;;5113876;28;20201;-58
2021/04/29 01:10:26;;;;;;;12.00;10.07;;;11.20;99.90;;;;;;5114019;28;20198;-59
2021/04/29 01:13:02;;;;;;;11.20;9.87;;;11.20;99.90;;;;;;5113925;28;20187;-59
2021/04/29 01:15:29;;;;;;;12.10;9.13;;;11.20;99.90;;;;;;5095964;28;527722;-59
2021/04/29 01:17:57;;;;;;;11.37;9.70;;;11.30;99.90;;;;;;5114667;28;20205;-59
2021/04/29 01:20:33;;;;;;;11.03;9.40;;;11.30;99.90;;;;;;5114976;28;20295;-59
2021/04/29 01:23:08;;;;;;;12.50;9.40;;;11.20;99.90;;;;;;5114824;28;20189;-59
2021/04/29 01:25:40;;;;;;;13.60;10.00;;;11.30;99.90;;;;;;5114715;28;20282;-59
2021/04/29 01:28:08;;;;;;;12.93;9.70;;;11.30;99.90;;;;;;5114683;27;20190;-58
2021/04/29 01:30:37;;;;;;;13.20;9.93;;;11.20;99.90;;;;;;5114392;28;20203;-58
2021/04/29 01:33:05;;;;;;;10.80;9.50;;;11.10;99.90;;;;;;5097314;28;20200;-59
2021/04/29 01:35:32;;;;;;;11.43;9.37;;;11.00;99.90;;;;;;5093716;28;20239;-58
2021/04/29 01:38:00;;;;;;;11.30;9.27;;;10.90;99.90;;;;;;5093918;28;20715;-59
2021/04/29 01:40:27;;;;;;;10.90;9.60;;;10.90;99.90;;;;;;5093903;28;20212;-59
2021/04/29 01:42:54;;;;;;;12.00;9.87;;;10.80;99.90;;;;;;5093675;28;20201;-58
2021/04/29 01:45:22;;;;;;;12.63;9.73;;;10.80;99.90;;;;;;5093664;28;20199;-58
2021/04/29 01:47:49;;;;;;;11.33;10.03;;;10.80;99.90;;;;;;5093756;28;20209;-58
2021/04/29 01:50:16;;;;;;;11.07;9.87;;;10.80;99.90;;;;;;5094048;28;20261;-58
2021/04/29 01:52:43;;;;;;;11.33;9.43;;;10.80;99.90;;;;;;5093941;28;20203;-59
2021/04/29 01:55:11;;;;;;;14.00;10.47;;;10.80;99.90;;;;;;5093773;28;20196;-58
2021/04/29 01:57:38;;;;;;;10.87;9.70;;;10.90;99.90;;;;;;5093682;28;20216;-60
2021/04/29 02:00:08;;;;;;;13.30;9.50;;;10.90;99.90;;;;;;5093774;28;20204;-58
2021/04/29 02:02:36;;;;;;;17.00;9.67;;;11.00;99.90;;;;;;5093234;28;20736;-58
2021/04/29 02:05:04;;;;;;;10.90;9.77;;;11.00;99.90;;;;;;5093409;28;20203;-58
2021/04/29 02:07:31;;;;;;;11.40;10.20;;;11.00;99.90;;;;;;5093603;28;20198;-60
2021/04/29 02:09:58;;;;;;;11.53;9.70;;;11.00;99.90;;;;;;5093672;28;20286;-58
2021/04/29 02:12:25;;;;;;;12.03;9.93;;;11.00;99.90;;;;;;5093548;28;20204;-59
2021/04/29 02:14:56;;;;;;;12.53;10.27;;;11.00;99.90;;;;;;5093299;28;20228;-60
2021/04/29 02:17:30;;;;;;;13.33;9.77;;;11.00;99.90;;;;;;5093145;28;20204;-59
2021/04/29 02:20:00;;;;;;;10.37;9.10;;;11.00;99.90;;;;;;5093458;28;20188;-59
2021/04/29 02:22:29;;;;;;;11.00;9.50;;;11.00;99.90;;;;;;5093132;28;20766;-59
2021/04/29 02:24:57;;;;;;;11.53;10.33;;;11.00;99.90;;;;;;5093403;28;20291;-58
2021/04/29 02:27:24;;;;;;;12.50;9.90;;;11.00;99.90;;;;;;5093059;28;20668;-59
2021/04/29 02:29:51;;;;;;;12.53;10.00;;;11.00;99.90;;;;;;5093225;28;20236;-58
2021/04/29 02:32:18;;;;;;;10.90;9.70;;;11.00;99.90;;;;;;5103483;28;20199;-59
2021/04/29 02:34:46;;;;;;;11.10;9.00;;;11.10;99.90;;;;;;5113608;27;20574;-58
2021/04/29 02:37:14;;;;;;;12.33;9.47;;;11.00;99.90;;;;;;5113540;28;20554;-58
2021/04/29 02:39:42;;;;;;;12.80;10.17;;;11.00;99.90;;;;;;5113613;28;20199;-59
2021/04/29 02:42:12;;;;;;;12.30;9.50;;;11.00;99.90;;;;;;5113583;28;20575;-59
2021/04/29 02:44:39;;;;;;;10.13;9.03;;;11.10;99.90;;;;;;5113338;28;20290;-59
2021/04/29 02:47:06;;;;;;;11.30;9.73;;;11.10;99.90;;;;;;5113550;28;20223;-58
2021/04/29 02:49:33;;;;;;;11.53;10.30;;;11.10;99.90;;;;;;5112988;28;20620;-58
2021/04/29 02:52:00;;;;;;;11.83;9.87;;;11.10;99.90;;;;;;5113590;28;20286;-59
2021/04/29 02:54:28;;;;;;;12.17;10.40;;;11.10;99.90;;;;;;5113091;28;20788;-59
2021/04/29 02:56:55;;;;;;;13.73;10.03;;;11.10;99.90;;;;;;5113082;28;20250;-59
2021/04/29 02:59:22;;;;;;;10.50;9.40;;;11.30;99.90;;;;;;5112939;28;20290;-57
2021/04/29 03:01:49;;;;;;;13.07;10.83;;;11.30;99.90;;;;;;5113246;28;20206;-60
2021/04/29 03:04:16;;;;;;;11.53;10.33;;;11.20;99.90;;;;;;5112697;28;20655;-58
2021/04/29 03:06:43;;;;;;;12.73;11.47;;;11.10;99.90;;;;;;5113088;28;20298;-59
2021/04/29 03:09:09;;;;;;;14.80;12.37;;;10.90;99.90;;;;;;5113381;28;20289;-59
2021/04/29 03:11:37;;;;;;;13.43;12.03;;;10.80;99.90;;;;;;5113251;28;20298;-58
2021/04/29 03:14:05;;;;;;;15.40;12.57;;;10.70;99.90;;;;;;5113120;28;20290;-58
2021/04/29 03:16:32;;;;;;;15.33;12.97;;;10.50;99.90;;;;;;5112845;28;20238;-58
2021/04/29 03:18:59;;;;;;;14.53;12.93;;;10.30;99.90;;;;;;5112876;28;20570;-59
2021/04/29 03:21:26;;;;;;;16.47;14.07;;;10.50;99.90;;;;;;5113125;28;20199;-59
2021/04/29 03:23:53;;;;;;;15.83;13.87;;;10.50;99.90;;;;;;5112890;28;20239;-58
2021/04/29 03:26:20;;;;;;;16.37;13.23;;;10.50;99.90;;;;;;5113115;28;20191;-58
2021/04/29 03:28:47;;;;;;;16.00;14.30;;;10.40;99.90;;;;;;5113216;28;20293;-58
2021/04/29 03:31:14;;;;;;;17.27;15.47;;;10.30;99.90;;;;;;5111284;28;20686;-59
2021/04/29 03:33:41;;;;;;;17.33;15.47;;;10.30;99.90;;;;;;5092325;28;20228;-58
2021/04/29 03:36:08;;;;;;;19.43;15.43;;;10.20;99.90;;;;;;5092137;28;20643;-60
2021/04/29 03:38:35;;;;;;;17.20;15.40;;;10.10;99.90;;;;;;5092638;28;20204;-58
2021/04/29 03:41:02;;;;;;;18.80;16.07;;;10.00;99.90;;;;;;5092500;28;20207;-59
2021/04/29 03:43:29;;;;;;;19.83;16.87;;;10.00;99.90;;;;;;5092474;28;20200;-59
2021/04/29 03:45:57;;;;;;;21.03;16.83;;;10.00;99.90;;;;;;5092610;28;20296;-58
2021/04/29 03:48:24;;;;;;;17.93;15.77;;;10.00;99.90;;;;;;5092232;28;20212;-58
2021/04/29 03:50:51;;;;;;;20.30;17.03;;;9.90;99.90;;;;;;5092182;28;20711;-58
2021/04/29 03:53:18;;;;;;;17.43;15.50;;;9.90;99.90;;;;;;5092466;28;20325;-60
2021/04/29 03:55:44;;;;;;;19.63;17.47;;;9.90;99.90;;;;;;5092396;28;20202;-59
2021/04/29 03:58:11;;;;;;;20.47;17.63;;;10.00;99.90;;;;;;5092338;28;20220;-50
2021/04/29 04:00:38;;;;;;;19.77;17.23;;;10.00;99.90;;;;;;5092379;28;20202;-51
2021/04/29 04:03:06;;;;;;;19.97;17.53;;;10.00;99.90;;;;;;5092032;28;20200;-51
2021/04/29 04:05:33;;;;;;;19.60;17.40;;;10.00;99.90;;;;;;5092309;28;20582;-54
2021/04/29 04:07:59;;;;;;;20.77;17.93;;;10.00;99.90;;;;;;5094821;28;20291;-53
2021/04/29 04:10:26;;;;;;;21.37;18.63;;;10.00;99.90;;;;;;5096221;28;20331;-53
2021/04/29 04:12:53;;;;;;;24.53;20.43;;;10.00;99.90;;;;;;5095689;28;20208;-54
2021/04/29 04:15:20;;;;;;;22.17;19.87;;;10.00;99.90;;;;;;5095520;28;20236;-55
2021/04/29 04:17:47;;;;;;;22.23;19.67;;;10.00;99.90;;;;;;5095502;28;20311;-53
2021/04/29 04:20:21;;;;;;;22.50;19.60;;;10.00;99.90;;;;;;5095713;28;20180;-52
2021/04/29 04:22:49;;;;;;;21.57;18.60;;;10.00;99.90;;;;;;5095754;28;20231;-52
2021/04/29 04:25:16;;;;;;;22.77;19.27;;;10.00;99.90;;;;;;5095525;28;20268;-54
2021/04/29 04:27:44;;;;;;;21.33;18.73;;;10.00;99.90;;;;;;5095643;28;20203;-53
2021/04/29 04:30:11;;;;;;;23.47;20.23;;;10.00;99.90;;;;;;5095243;28;20536;-52
2021/04/29 04:32:38;;;;;;;21.60;19.20;;;10.00;99.90;;;;;;5108292;28;20845;-55
2021/04/29 04:35:06;;;;;;;23.23;20.50;;;10.00;99.90;;;;;;5115578;27;20717;-53
2021/04/29 04:37:34;;;;;;;23.33;19.40;;;10.00;99.90;;;;;;5115554;28;20302;-53
2021/04/29 04:40:01;;;;;;;22.53;18.70;;;10.00;99.90;;;;;;5115594;28;20223;-50
2021/04/29 04:42:28;;;;;;;21.43;19.10;;;10.00;99.90;;;;;;5115255;28;20209;-53
2021/04/29 04:44:54;;;;;;;21.73;19.37;;;10.00;99.90;;;;;;5115662;28;20205;-50
2021/04/29 04:47:21;;;;;;;22.53;19.50;;;10.00;99.90;;;;;;5115490;28;20284;-55
2021/04/29 04:49:48;;;;;;;23.80;19.83;;;10.00;99.90;;;;;;5115483;28;20315;-52
2021/04/29 04:52:15;;;;;;;26.20;21.27;;;10.00;99.90;;;;;;5115437;28;20322;-52
2021/04/29 04:54:43;;;;;;;27.90;22.50;;;10.00;99.90;;;;;;5115034;28;20282;-55
2021/04/29 04:57:11;;;;;;;24.47;20.77;;;9.90;99.90;;;;;;5115241;28;20314;-54
2021/04/29 04:59:37;;;;;;;26.03;21.30;;;9.90;99.90;;;;;;5115387;28;20670;-56
2021/04/29 05:02:04;;;;;;;26.90;22.70;;;9.90;99.90;;;;;;5116963;28;20706;-54
2021/04/29 05:04:33;;;;;;;24.87;20.97;;;9.90;99.90;;;;;;5114776;28;20601;-53
2021/04/29 05:07:01;;;;;;;24.17;21.17;;;9.90;99.90;;;;;;5115306;28;20282;-55
2021/04/29 05:09:28;;;;;;;25.30;20.87;;;10.00;99.90;;;;;;5114913;28;20750;-53
2021/04/29 05:11:56;;;;;;;23.40;20.80;;;10.10;99.90;;;;;;5114942;28;20627;-54
2021/04/29 05:14:23;;;;;;;24.13;19.90;;;10.10;99.90;;;;;;5114835;28;20589;-52
2021/04/29 05:16:50;;;;;;;25.17;20.43;;;10.10;99.90;;;;;;5114778;28;20310;-56
2021/04/29 05:19:17;;;;;;;22.80;19.23;;;10.10;99.90;;;;;;5113201;28;20207;-55
2021/04/29 05:21:44;;;;;;;21.47;18.57;;;10.30;99.90;;;;;;5114634;28;20195;-53
2021/04/29 05:24:11;;;;;;;22.50;18.83;;;10.40;99.90;;;;;;5114773;28;20230;-55
2021/04/29 05:26:38;;;;;;;20.87;18.77;;;10.40;99.90;;;;;;5114675;28;20207;-54
2021/04/29 05:29:08;;;;;;;23.13;18.87;;;10.60;99.90;;;;;;5114677;28;20195;-55
2021/04/29 05:31:35;;;;;;;21.03;18.47;;;10.70;99.90;;;;;;5110044;28;20245;-56
2021/04/29 05:34:02;;;;;;;20.57;18.37;;;10.90;99.90;;;;;;5093795;28;20599;-56
2021/04/29 05:36:30;;;;;;;21.80;17.73;;;10.80;99.90;;;;;;5094094;28;20232;-53
2021/04/29 05:38:58;;;;;;;19.97;17.80;;;10.80;99.90;;;;;;5093818;28;20570;-54
2021/04/29 05:41:25;;;;;;;20.67;17.70;;;10.90;99.90;;;;;;5093588;28;20785;-56
2021/04/29 05:43:51;;;;;;;21.43;18.93;;;11.00;99.90;;;;;;5094165;28;20718;-55
2021/04/29 05:46:19;;;;;;;21.27;17.77;;;11.00;99.90;;;;;;5093856;28;20666;-54
2021/04/29 05:48:46;;;;;;;22.27;18.83;;;11.20;99.90;;;;;;5093823;28;20257;-53
2021/04/29 05:51:13;;;;;;;21.83;18.57;;;11.20;99.90;;;;;;5110946;28;20307;-53
2021/04/29 05:53:40;;;;;;;21.30;17.80;;;11.30;99.90;;;;;;5111078;28;20253;-53
2021/04/29 05:56:07;;;;;;;23.70;18.47;;;11.30;99.90;;;;;;5111152;28;20306;-54
2021/04/29 05:58:34;;;;;;;19.27;17.23;;;11.50;99.90;;;;;;5111100;28;20293;-55
2021/04/29 06:01:02;;;;;;;20.97;17.90;;;11.60;99.90;;;;;;5111267;28;20195;-53
2021/04/29 06:03:30;;;;;;;19.37;17.27;;;11.70;99.90;;;;;;5110765;28;20199;-56
2021/04/29 06:05:56;;;;;;;22.70;17.30;;;11.80;99.90;;;;;;5111240;28;20297;-55
2021/04/29 06:08:23;;;;;;;19.33;16.70;;;11.80;99.90;;;;;;5110564;28;20205;-55
2021/04/29 06:10:50;;;;;;;20.50;17.00;;;11.90;99.90;;;;;;5110863;28;20341;-55
2021/04/29 06:13:18;;;;;;;18.73;16.73;;;12.00;99.90;;;;;;5110651;28;20639;-55
2021/04/29 06:15:45;;;;;;;18.00;16.07;;;12.10;99.90;;;;;;5110700;28;20318;-56
2021/04/29 06:18:11;;;;;;;18.77;15.93;;;12.20;99.90;;;;;;5110461;28;20307;-56
2021/04/29 06:20:40;;;;;;;20.20;15.90;;;12.30;99.90;;;;;;5110836;28;20203;-55
2021/04/29 06:23:08;;;;;;;16.83;15.03;;;12.50;99.90;;;;;;5110630;28;20290;-54
2021/04/29 06:25:35;;;;;;;20.20;15.33;;;12.80;99.90;;;;;;5110725;28;20212;-56
2021/04/29 06:28:02;;;;;;;16.10;14.40;;;13.00;99.90;;;;;;5110315;28;20199;-55
2021/04/29 06:30:29;;;;;;;17.30;14.43;;;13.10;99.90;;;;;;5109053;28;20293;-54
2021/04/29 06:32:56;;;;;;;15.40;13.47;;;13.20;99.90;;;;;;5093714;28;20210;-54
2021/04/29 06:35:23;;;;;;;14.93;13.33;;;13.40;99.90;;;;;;5089129;28;20654;-56
2021/04/29 06:37:51;;;;;;;16.60;14.43;;;13.40;99.90;;;;;;5089548;28;20256;-54
2021/04/29 06:40:18;;;;;;;16.40;14.00;;;13.40;99.90;;;;;;5089234;28;20291;-55
2021/04/29 06:42:46;;;;;;;15.50;14.00;;;13.40;99.90;;;;;;5089688;28;20204;-51
2021/04/29 06:45:14;;;;;;;16.17;14.47;;;13.30;99.90;;;;;;5089720;28;20210;-54
2021/04/29 06:47:41;;;;;;;17.57;14.90;;;13.30;99.90;;;;;;5089588;28;20196;-57
2021/04/29 06:50:10;;;;;;;16.27;14.57;;;13.30;99.90;;;;;;5089505;28;20206;-53
2021/04/29 06:52:36;;;;;;;17.50;15.17;;;13.30;99.90;;;;;;5089774;28;20295;-55
2021/04/29 06:55:05;;;;;;;17.20;15.50;;;13.30;99.90;;;;;;5089416;28;20210;-55
2021/04/29 06:57:32;;;;;;;17.63;15.77;;;13.20;99.90;;;;;;5090767;28;20307;-54
2021/04/29 06:59:59;;;;;;;18.00;15.50;;;13.20;99.90;;;;;;5109965;28;20203;-51
2021/04/29 07:02:26;;;;;;;17.97;13.90;;;13.40;99.90;;;;;;5109909;27;20253;-53
2021/04/29 07:05:00;;;;;;;16.43;14.60;;;13.50;99.90;;;;;;5110064;28;20613;-51
2021/04/29 07:07:27;;;;;;;16.90;15.20;;;13.70;99.90;;;;;;5109901;28;20252;-53
2021/04/29 07:09:54;;;;;;;17.23;15.17;;;13.70;99.90;;;;;;5109993;28;20231;-55
2021/04/29 07:12:22;;;;;;;18.83;15.57;;;13.40;99.90;;;;;;5110179;28;20202;-53
2021/04/29 07:14:49;;;;;;;16.13;14.43;;;13.40;99.90;;;;;;5109727;28;20238;-54
2021/04/29 07:17:16;;;;;;;15.47;13.87;;;13.50;99.90;;;;;;5109668;28;20845;-55
2021/04/29 07:19:43;;;;;;;18.02;16.33;;;13.50;99.90;;;;;;5108791;28;20474;-53
2021/04/29 07:22:10;;;;;;;15.63;13.90;;;13.50;99.90;;;;;;5109510;28;20302;-54
2021/04/29 07:24:37;;;;;;;15.90;14.20;;;13.60;99.90;;;;;;5109651;28;20203;-51
2021/04/29 07:27:05;;;;;;;16.80;15.10;;;13.60;99.90;;;;;;5109504;28;20199;-53
2021/04/29 07:29:34;;;;;;;16.30;14.63;;;13.70;99.90;;;;;;5109820;28;20206;-53
2021/04/29 07:32:01;;;;;;;15.97;14.37;;;13.80;99.90;;;;;;5101440;28;20299;-54
2021/04/29 07:34:28;;;;;;;16.50;14.73;;;14.00;99.90;;;;;;5089068;28;20238;-53
2021/04/29 07:36:58;;;;;;;16.77;15.07;;;14.10;99.90;;;;;;5088953;28;20235;-50
2021/04/29 07:39:26;;;;;;;15.20;13.70;;;14.10;99.90;;;;;;5089388;28;20226;-54
2021/04/29 07:41:53;;;;;;;16.23;14.53;;;14.20;99.90;;;;;;5090275;28;20294;-53
2021/04/29 07:44:20;;;;;;;16.10;14.37;;;14.10;99.90;;;;;;5093183;28;20227;-53
2021/04/29 07:46:48;;;;;;;16.43;14.80;;;14.10;99.90;;;;;;5093374;28;20200;-49
2021/04/29 07:49:15;;;;;;;17.00;14.07;;;14.00;99.90;;;;;;5092959;28;20196;-54
2021/04/29 07:51:42;;;;;;;16.73;13.97;;;14.00;99.90;;;;;;5092730;28;20263;-57
2021/04/29 07:54:13;;;;;;;16.23;14.63;;;14.20;99.90;;;;;;5092684;28;20291;-55
2021/04/29 07:56:40;;;;;;;15.37;13.77;;;14.30;99.90;;;;;;5093055;28;20287;-54
2021/04/29 07:59:07;;;;;;;15.03;12.97;;;14.50;99.90;;;;;;5092898;28;20231;-54
2021/04/29 08:01:39;;;;;;;14.53;12.40;;;14.50;99.90;;;;;;5092863;28;20224;-55
2021/04/29 08:04:07;;;;;;;14.30;12.87;;;14.40;99.90;;;;;;5092268;28;20291;-55
2021/04/29 08:06:34;;;;;;;13.53;12.13;;;14.50;99.90;;;;;;5092826;28;20200;-53
2021/04/29 08:09:01;;;;;;;13.13;11.77;;;14.50;99.90;;;;;;5092654;28;20282;-54
2021/04/29 08:11:28;;;;;;;13.13;11.20;;;14.50;99.90;;;;;;5092549;28;20204;-50
2021/04/29 08:13:55;;;;;;;13.00;11.80;;;14.30;99.90;;;;;;5092691;28;20593;-53
2021/04/29 08:16:22;;;;;;;11.93;10.73;;;14.00;99.90;;;;;;5092594;28;20204;-54
2021/04/29 08:18:49;;;;;;;11.93;10.63;;;13.70;99.90;;;;;;5092207;28;20848;-57
2021/04/29 08:21:23;;;;;;;12.50;11.20;;;13.60;99.90;;;;;;5092397;28;20180;-56
2021/04/29 08:23:49;;;;;;;11.57;10.47;;;13.60;99.90;;;;;;5092827;28;20239;-54
2021/04/29 08:26:16;;;;;;;12.10;10.87;;;13.80;99.90;;;;;;5092389;28;20742;-53
2021/04/29 08:28:44;;;;;;;10.13;9.23;;;14.10;99.90;;;;;;5092126;28;20196;-55
2021/04/29 08:31:11;;;;;;;12.83;10.30;;;14.20;99.90;;;;;;5093076;28;20265;-54
2021/04/29 08:33:38;;;;;;;11.90;10.70;;;14.30;99.90;;;;;;5111891;28;20685;-51
2021/04/29 08:36:05;;;;;;;11.40;10.30;;;14.40;99.90;;;;;;5112263;28;20663;-60
2021/04/29 08:38:33;;;;;;;11.67;10.43;;;14.60;99.90;;;;;;5112353;28;20306;-60
2021/04/29 08:41:00;;;;;;;11.87;10.77;;;14.80;99.90;;;;;;5112683;28;20659;-60
2021/04/29 08:43:27;;;;;;;11.23;10.13;;;15.00;99.90;;;;;;5112403;28;20682;-54
2021/04/29 08:45:54;;;;;;;10.83;9.73;;;15.00;99.90;;;;;;5112405;28;20309;-54
2021/04/29 08:48:22;;;;;;;11.17;10.07;;;15.00;99.90;;;;;;5112316;28;20260;-53
2021/04/29 08:50:50;;;;;;;10.55;9.55;;;14.80;99.90;;;;;;5112529;28;20291;-53
2021/04/29 08:53:17;;;;;;;10.38;9.38;;;14.60;99.90;;;;;;5112353;28;20231;-54
2021/04/29 08:55:45;;;;;;;12.23;10.97;;;14.50;99.90;;;;;;5112417;28;20211;-54
2021/04/29 08:58:12;;;;;;;11.60;10.40;;;14.50;99.90;;;;;;5112222;28;20229;-53
2021/04/29 09:00:39;;;;;;;11.80;10.63;;;14.60;99.90;;;;;;5112346;28;20636;-54
2021/04/29 09:03:07;;;;;;;13.03;9.93;;;14.80;99.90;;;;;;5111863;28;20298;-54
2021/04/29 09:05:34;;;;;;;10.27;9.27;;;15.10;99.90;;;;;;5112217;28;20210;-55
2021/04/29 09:08:03;;;;;;;10.27;9.27;;;15.10;99.90;;;;;;5112065;28;20203;-51
2021/04/29 09:10:33;;;;;;;9.73;8.63;;;15.20;99.90;;;;;;5112160;28;20203;-53
2021/04/29 09:13:11;;;;;;;10.23;9.23;;;15.50;99.90;;;;;;5111979;28;20227;-54
2021/04/29 09:15:39;;;;;;;9.67;8.77;;;15.70;99.90;;;;;;5111818;28;20321;-52
2021/04/29 09:18:09;;;;;;;10.07;9.15;;;15.90;99.90;;;;;;5111505;28;20364;-57
2021/04/29 09:20:37;;;;;;;9.35;8.30;;;15.90;99.90;;;;;;5111761;28;20212;-57
2021/04/29 09:23:06;;;;;;;9.90;9.00;;;15.70;99.90;;;;;;5111678;28;20231;-57
2021/04/29 09:25:35;;;;;;;9.80;8.70;;;15.60;99.90;;;;;;5111935;28;20296;-58
2021/04/29 09:28:04;;;;;;;10.13;9.15;;;15.60;99.90;;;;;;5111646;28;20218;-53
2021/04/29 09:30:31;;;;;;;9.90;8.90;;;15.60;99.90;;;;;;5111515;28;20203;-55
2021/04/29 09:32:59;;;;;;;10.07;8.40;;;15.80;99.90;;;;;;5095156;28;20246;-54
2021/04/29 09:35:27;;;;;;;9.77;8.80;;;16.00;99.90;;;;;;5091122;28;20227;-55
2021/04/29 09:37:59;;;;;;;10.13;9.05;;;16.10;99.90;;;;;;5091037;28;20219;-54
2021/04/29 09:40:33;;;;;;;9.52;8.48;;;16.30;99.90;;;;;;5091100;28;20568;-57
2021/04/29 09:43:01;;;;;;;10.02;9.07;;;16.30;99.90;;;;;;5090726;28;20184;-57
2021/04/29 09:45:31;;;;;;;9.88;8.98;;;16.40;99.90;;;;;;5090435;28;20298;-57
2021/04/29 09:48:00;;;;;;;10.13;9.15;;;16.60;99.90;;;;;;5090727;28;20176;-54
2021/04/29 09:50:33;;;;;;;9.30;8.40;;;16.50;99.90;;;;;;5090441;28;20624;-54
2021/04/29 09:53:05;;;;;;;10.05;8.77;;;16.50;99.90;;;;;;5090399;28;20655;-56
2021/04/29 09:55:34;;;;;;;9.52;8.50;;;16.40;99.90;;;;;;5090356;28;20243;-56
2021/04/29 09:58:03;;;;;;;10.18;8.90;;;16.60;99.90;;;;;;5090380;28;20314;-55
2021/04/29 10:00:30;;;;;;;9.95;8.40;;;16.70;99.90;;;;;;5090078;28;20206;-51
2021/04/29 10:02:57;;;;;;;9.40;8.50;;;16.80;99.90;;;;;;5090378;28;20196;-54
2021/04/29 10:05:24;;;;;;;9.00;8.20;;;17.00;99.90;;;;;;5089383;28;20283;-53
2021/04/29 10:07:52;;;;;;;8.77;7.90;;;17.20;99.90;;;;;;5090172;28;20707;-54
2021/04/29 10:10:20;;;;;;;9.48;8.52;;;17.40;99.90;;;;;;5090302;28;20199;-53
2021/04/29 10:12:48;;;;;;;10.48;8.48;;;17.50;99.90;;;;;;5089963;28;20204;-55
2021/04/29 10:15:14;;;;;;;11.05;9.88;;;17.50;99.90;;;;;;5089704;28;20711;-56
2021/04/29 10:17:42;;;;;;;9.80;8.80;;;17.40;99.90;;;;;;5089775;28;20310;-55
2021/04/29 10:20:14;;;;;;;9.57;8.68;;;17.40;99.90;;;;;;5089929;28;20208;-54
2021/04/29 10:22:42;;;;;;;9.50;8.55;;;17.30;99.90;;;;;;5090179;28;20239;-53
2021/04/29 10:25:10;;;;;;;10.00;7.93;;;17.40;99.90;;;;;;5090144;28;20200;-56
2021/04/29 10:27:44;;;;;;;9.63;8.63;;;17.50;99.90;;;;;;5089774;28;20291;-53
2021/04/29 10:30:13;;;;;;;10.18;8.80;;;17.60;99.90;;;;;;5089803;28;20276;-53
2021/04/29 10:32:41;;;;;;;9.20;8.38;;;17.40;99.90;;;;;;5103206;28;20221;-56
2021/04/29 10:35:17;;;;;;;9.57;8.68;;;17.20;99.90;;;;;;5109571;28;20211;-54
2021/04/29 10:37:54;;;;;;;12.05;8.93;;;17.00;99.90;;;;;;5109646;28;20267;-56
2021/04/29 10:40:35;;;;;;;9.50;8.70;;;17.10;99.90;;;;;;5109817;28;20184;-53
2021/04/29 10:43:04;;;;;;;9.45;8.55;;;17.30;99.90;;;;;;5109900;28;20206;-54
2021/04/29 10:45:31;;;;;;;9.02;8.20;;;17.40;99.90;;;;;;5110325;28;20203;-53
2021/04/29 10:48:06;;;;;;;10.05;9.15;;;17.50;99.90;;;;;;5109602;28;20195;-54
2021/04/29 10:50:44;;;;;;;9.20;8.40;;;17.40;99.90;;;;;;5109895;28;20214;-52
2021/04/29 10:53:13;;;;;;;10.95;9.95;;;17.30;99.90;;;;;;5109907;28;20235;-52
2021/04/29 10:55:43;;;;;;;10.60;9.48;;;17.10;99.90;;;;;;5109945;28;20241;-54
2021/04/29 10:58:22;;;;;;;11.02;9.32;;;17.10;99.90;;;;;;5109913;28;20228;-53
2021/04/29 11:01:05;;;;;;;10.15;9.15;;;17.20;99.90;;;;;;5109928;28;20186;-54
2021/04/29 11:03:36;;;;;;;9.45;8.55;;;17.00;99.90;;;;;;5108466;28;20230;-53
2021/04/29 11:06:09;;;;;;;10.30;9.27;;;17.10;99.90;;;;;;5109878;28;20528;-55
2021/04/29 11:08:38;;;;;;;10.40;8.77;;;17.00;99.90;;;;;;5109790;28;20282;-53
2021/04/29 11:11:05;;;;;;;10.88;8.82;;;17.00;99.90;;;;;;5109911;28;20230;-54
2021/04/29 11:13:32;;;;;;;9.15;8.35;;;17.00;99.90;;;;;;5109457;28;20209;-52
2021/04/29 11:16:01;;;;;;;9.00;8.20;;;17.10;99.90;;;;;;5110372;28;20322;-53
2021/04/29 11:18:28;;;;;;;8.77;7.88;;;17.20;99.90;;;;;;5113135;28;20314;-53
2021/04/29 11:21:08;;;;;;;9.75;7.75;;;17.30;99.90;;;;;;5114050;28;20696;-54
2021/04/29 11:23:40;;;;;;;7.80;7.00;;;17.50;99.90;;;;;;5114263;28;20682;-53
2021/04/29 11:26:08;;;;;;;7.18;6.55;;;17.60;99.90;;;;;;5113552;28;20599;-54
2021/04/29 11:28:36;;;;;;;5.90;5.18;;;17.70;99.90;;;;;;5113591;28;20624;-50
2021/04/29 11:31:03;;;;;;;6.55;5.00;;;17.60;99.90;;;;;;5113743;28;20207;-55
2021/04/29 11:33:34;;;;;;;5.95;5.28;;;17.60;99.90;;;;;;5093151;28;20723;-54
2021/04/29 11:36:01;;;;;;;6.10;5.25;;;17.60;99.90;;;;;;5093262;28;20283;-55
2021/04/29 11:38:29;;;;;;;6.50;5.78;;;17.60;99.90;;;;;;5093366;28;20224;-56
2021/04/29 11:40:56;;;;;;;7.32;5.13;;;17.60;99.90;;;;;;5093516;28;20224;-56
2021/04/29 11:43:23;;;;;;;6.88;5.75;;;17.60;99.90;;;;;;5093182;28;20222;-55
2021/04/29 11:45:52;;;;;;;5.65;5.13;;;17.60;99.90;;;;;;5093188;28;20222;-55
2021/04/29 11:48:23;;;;;;;4.82;4.40;;;17.60;99.90;;;;;;5092779;28;20283;-55
2021/04/29 11:50:52;;;;;;;4.85;4.35;;;17.50;99.90;;;;;;5093148;28;20705;-52
2021/04/29 11:53:24;;;;;;;5.47;4.88;;;17.60;99.90;;;;;;5093074;28;20230;-54
2021/04/29 11:55:58;;;;;;;6.05;5.10;;;17.70;99.90;;;;;;5093327;28;20207;-54
2021/04/29 11:58:24;;;;;;;4.30;3.90;;;17.70;99.90;;;;;;5092876;28;20322;-57
2021/04/29 12:00:53;;;;;;;5.57;4.40;;;17.80;99.90;;;;;;5092832;28;20625;-56
2021/04/29 12:03:22;;;;;;;4.70;4.20;;;18.00;99.90;;;;;;5092607;28;20287;-57
2021/04/29 12:05:51;;;;;;;5.15;3.80;;;18.10;99.90;;;;;;5092948;28;20282;-56
2021/04/29 12:08:21;;;;;;;7.13;4.30;;;18.30;99.90;;;;;;5092865;28;20279;-55
2021/04/29 12:10:51;;;;;;;5.78;4.05;;;18.60;99.90;;;;;;5092964;28;20208;-56
2021/04/29 12:13:29;;;;;;;4.88;3.70;;;18.80;99.90;;;;;;5093126;28;20234;-52
2021/04/29 12:15:57;;;;;;;4.13;3.15;;;19.10;99.90;;;;;;5092440;28;20346;-49
2021/04/29 12:18:24;;;;;;;5.35;3.20;;;19.50;99.90;;;;;;5092292;28;20232;-49
2021/04/29 12:20:52;;;;;;;6.07;2.80;;;19.60;99.90;;;;;;5092654;28;20295;-53
2021/04/29 12:23:20;;;;;;;4.40;2.72;;;19.70;99.90;;;;;;5092152;28;20290;-51
2021/04/29 12:25:58;;;;;;;5.97;2.60;;;19.80;99.90;;;;;;5092259;28;20231;-59
2021/04/29 12:28:31;;;;;;;4.45;3.10;;;19.80;99.90;;;;;;5091846;28;20251;-56
2021/04/29 12:30:59;;;;;;;6.40;3.05;;;19.60;99.90;;;;;;5092479;28;20188;-55
2021/04/29 12:33:25;;;;;;;3.40;2.67;;;19.40;99.90;;;;;;5112011;28;20662;-56
2021/04/29 12:36:07;;;;;;;2.70;2.40;;;19.30;99.90;;;;;;5112866;28;20186;-58
2021/04/29 12:38:35;;;;;;;4.22;2.63;;;19.20;99.90;;;;;;5112732;28;20207;-56